Terminal Aerodrome Forecast
Issued by NWS Melbourne, FL

Current Version | Previous Version | Text Only | Print | Product List | Glossary On
Versions: 1 2 3 4 5 6 7 8 9 10 11 12
192
FTUS42 KMLB 191127
TAFVRB
TAF
KVRB 191127Z 1912/2012 VRB03KT P6SM SCT250
     FM191400 18004KT P6SM FEW025 SCT250
     FM191600 10009KT P6SM SCT035
     FM200100 12005KT P6SM FEW040 SCT250=

USA.gov is the U.S. government's official web portal to all federal, state and local government web resources and services.